createdAt,value
2022-09-17T00:00:46.916Z,2.40
2022-09-17T00:01:47.015Z,2.40
2022-09-17T00:02:46.956Z,2.60
2022-09-17T00:03:46.904Z,2.70
2022-09-17T00:04:46.897Z,2.90
2022-09-17T00:05:46.891Z,2.70
2022-09-17T00:06:46.991Z,2.50
2022-09-17T00:07:46.834Z,2.60
2022-09-17T00:08:46.826Z,2.60
2022-09-17T00:09:46.824Z,2.50
2022-09-17T00:10:46.823Z,2.80
2022-09-17T00:11:46.790Z,2.70
2022-09-17T00:12:46.832Z,2.70
2022-09-17T22:46:50.972Z,1.50
2022-09-17T22:47:50.659Z,1.10
2022-09-17T22:48:50.689Z,1.60
2022-09-17T22:49:50.641Z,1.80
2022-09-17T22:50:50.629Z,1.40
2022-09-17T22:51:50.628Z,1.60
2022-09-17T22:52:50.604Z,1.20
2022-09-17T22:53:50.594Z,2.00
2022-09-17T22:54:50.601Z,1.60
2022-09-17T22:55:50.573Z,1.70
2022-09-17T22:56:50.567Z,1.70
2022-09-17T22:57:50.569Z,1.90
2022-09-17T22:58:50.553Z,1.50
2022-09-17T22:59:50.531Z,1.50
2022-09-17T23:00:50.525Z,1.90
2022-09-17T23:01:50.584Z,1.50
2022-09-17T23:02:50.656Z,1.50
2022-09-17T23:03:50.580Z,1.50
2022-09-17T23:04:50.519Z,1.20
2022-09-17T23:05:50.490Z,1.50
2022-09-17T23:06:50.477Z,1.80
2022-09-17T23:07:50.450Z,1.60
2022-09-17T23:08:50.440Z,1.70
2022-09-17T23:09:50.437Z,1.30
2022-09-17T23:10:50.423Z,1.50
2022-09-17T23:11:50.403Z,1.60
2022-09-17T23:12:50.390Z,1.50
2022-09-17T23:13:50.401Z,1.20
2022-09-17T23:14:50.373Z,1.20
2022-09-17T23:15:50.443Z,1.40
2022-09-17T23:16:50.365Z,1.50
2022-09-17T23:17:50.335Z,1.40
2022-09-17T23:18:50.504Z,1.50
2022-09-17T23:19:50.322Z,1.50
2022-09-17T23:20:50.301Z,1.20
2022-09-17T23:21:50.327Z,1.60
2022-09-17T23:22:50.301Z,1.60
2022-09-17T23:23:50.306Z,1.40
2022-09-17T23:24:50.285Z,1.70
2022-09-17T23:25:50.266Z,1.70
2022-09-17T23:26:50.259Z,1.40
2022-09-17T23:27:50.250Z,1.50
2022-09-17T23:28:50.214Z,1.30
2022-09-17T23:29:50.206Z,1.70
2022-09-17T23:30:50.274Z,1.70
2022-09-17T23:31:50.207Z,1.60
2022-09-17T23:32:50.180Z,1.20
2022-09-17T23:33:50.175Z,1.70
2022-09-17T23:34:50.263Z,1.40
2022-09-17T23:35:50.137Z,1.50
2022-09-17T23:36:50.132Z,1.70
2022-09-17T23:37:50.139Z,1.60
2022-09-17T23:38:50.110Z,1.40
2022-09-17T23:39:50.092Z,1.50
2022-09-17T23:40:50.096Z,2.40
2022-09-17T23:41:50.094Z,1.60
2022-09-17T23:42:50.057Z,1.50
2022-09-17T23:43:50.055Z,2.40
2022-09-17T23:44:50.055Z,1.50
2022-09-17T23:45:50.030Z,1.90
2022-09-17T23:46:50.105Z,1.50
2022-09-17T23:47:50.016Z,1.70
2022-09-17T23:48:49.989Z,1.70
2022-09-17T23:49:49.982Z,1.60
2022-09-17T23:50:50.086Z,1.40
2022-09-17T23:51:49.981Z,1.50
2022-09-17T23:52:49.950Z,1.60
2022-09-17T23:53:49.948Z,1.60
2022-09-17T23:54:49.933Z,1.70
2022-09-17T23:55:49.934Z,1.80
2022-09-17T23:56:49.936Z,1.30
2022-09-17T23:57:49.896Z,1.60
2022-09-17T23:58:49.915Z,1.50
2022-09-17T23:59:49.868Z,1.50
